Time;durP1;ratioP1;P1;durP2;ratioP2;P2;SDS_P1;SDS_P2;PMS_P1;PMS_P2;Temp;Humidity;BMP_temperature;BMP_pressure;BME280_temperature;BME280_humidity;BME280_pressure;Samples;Min_cycle;Max_cycle;Signal;HPM_P1;HPM_P2
2022/10/02 00:02:27;;;;;;;5.55;1.70;;;;;;;10.10;100.00;100619.88;6000695;28;20034;-66
2022/10/02 00:05:38;;;;;;;13.55;1.95;;;;;;;10.07;100.00;100623.66;6002072;28;20078;-66
2022/10/02 00:08:37;;;;;;;7.15;1.85;;;;;;;9.99;100.00;100617.41;6001879;28;20125;-66
2022/10/02 00:11:42;;;;;;;7.53;1.95;;;;;;;10.15;100.00;100622.94;5999994;28;20027;-66
2022/10/02 00:14:39;;;;;;;9.40;1.80;;;;;;;10.29;100.00;100622.47;6001114;28;20030;-66
2022/10/02 00:17:39;;;;;;;4.43;1.65;;;;;;;10.31;100.00;100620.50;6017812;28;20077;-66
2022/10/02 00:21:12;;;;;;;9.32;2.83;;;;;;;10.40;100.00;100638.19;6023192;28;20433;-66
2022/10/02 00:24:13;;;;;;;8.73;1.40;;;;;;;10.50;100.00;100638.97;5999364;28;20393;-66
2022/10/02 00:27:37;;;;;;;7.47;1.80;;;;;;;10.61;100.00;100643.22;6011877;28;20027;-67
2022/10/02 00:30:42;;;;;;;5.10;1.58;;;;;;;10.60;100.00;100634.44;6018734;28;20057;-67
2022/10/02 00:33:58;;;;;;;6.65;1.70;;;;;;;10.56;100.00;100638.38;6001532;28;20037;-67
2022/10/02 00:37:19;;;;;;;9.43;1.75;;;;;;;10.52;100.00;100647.59;6001544;28;20395;-67
2022/10/02 00:40:51;;;;;;;12.02;2.40;;;;;;;10.46;100.00;100642.06;6000626;28;20867;-67
2022/10/02 00:44:07;;;;;;;8.50;1.60;;;;;;;10.40;100.00;100638.19;6007372;28;20438;-67
2022/10/02 00:47:17;;;;;;;8.15;1.90;;;;;;;10.40;100.00;100634.69;6022231;28;20640;-67
2022/10/02 00:50:38;;;;;;;5.60;1.63;;;;;;;10.33;100.00;100623.81;6000886;28;20031;-67
2022/10/02 00:53:55;;;;;;;3.35;1.40;;;;;;;10.43;100.00;100639.69;6001387;28;20031;-66
2022/10/02 00:56:57;;;;;;;10.77;2.08;;;;;;;10.49;100.00;100641.78;6000801;28;20038;-66
2022/10/02 01:00:03;;;;;;;13.40;1.98;;;;;;;10.53;100.00;100667.00;6000923;28;20037;-68
2022/10/02 01:03:21;;;;;;;6.03;1.75;;;;;;;10.38;100.00;100661.31;6000733;28;20031;-68
2022/10/02 01:06:17;;;;;;;8.00;1.65;;;;;;;10.37;100.00;100650.88;6003155;28;20042;-69
2022/10/02 01:09:12;;;;;;;6.65;2.10;;;;;;;10.26;100.00;100643.97;6000705;28;20113;-68
2022/10/02 01:12:07;;;;;;;6.78;1.90;;;;;;;10.26;100.00;100656.38;5999837;28;20038;-68
2022/10/02 01:15:20;;;;;;;5.20;2.03;;;;;;;10.12;100.00;100639.97;6000045;28;20035;-67
2022/10/02 01:18:15;;;;;;;7.28;1.70;;;;;;;10.03;100.00;100640.78;6000343;28;20278;-66
2022/10/02 01:21:36;;;;;;;7.47;1.75;;;;;;;10.14;100.00;100661.00;5999363;28;20031;-66
2022/10/02 01:24:51;;;;;;;5.78;1.58;;;;;;;10.02;100.00;100651.53;6003073;28;20034;-66
2022/10/02 01:27:46;;;;;;;5.75;1.60;;;;;;;10.13;100.00;100675.25;5998988;28;20113;-66
2022/10/02 01:30:43;;;;;;;9.43;1.88;;;;;;;10.12;100.00;100673.53;5999548;28;20022;-66
2022/10/02 01:33:42;;;;;;;7.97;1.55;;;;;;;9.77;100.00;100633.63;6000138;28;20114;-66
2022/10/02 01:36:37;;;;;;;3.47;1.25;;;;;;;9.88;100.00;100667.88;5998356;28;20121;-66
2022/10/02 01:39:33;;;;;;;3.13;1.75;;;;;;;9.89;100.00;100682.81;6000287;28;20031;-66
2022/10/02 01:42:28;;;;;;;6.70;1.48;;;;;;;9.91;100.00;100678.19;5999253;28;20046;-66
2022/10/02 01:45:50;;;;;;;6.32;1.55;;;;;;;9.86;100.00;100665.41;5999406;28;20111;-66
2022/10/02 01:49:05;;;;;;;5.60;1.50;;;;;;;9.87;100.00;100676.78;5998213;28;20051;-66
2022/10/02 01:52:38;;;;;;;5.47;1.67;;;;;;;9.80;100.00;100670.41;5997854;28;20109;-66
2022/10/02 01:55:43;;;;;;;8.85;1.83;;;;;;;9.71;100.00;100665.94;5998298;28;20050;-66
2022/10/02 01:58:48;;;;;;;9.32;2.03;;;;;;;9.73;100.00;100666.66;5999577;28;20117;-66
2022/10/02 02:02:04;;;;;;;6.18;1.60;;;;;;;9.74;100.00;100676.25;5997672;28;20034;-65
2022/10/02 02:05:03;;;;;;;5.25;1.70;;;;;;;9.64;100.00;100655.13;5998299;28;20694;-66
2022/10/02 02:08:07;;;;;;;8.73;2.30;;;;;;;9.67;100.00;100675.19;5998078;28;20039;-66
2022/10/02 02:11:13;;;;;;;11.48;2.50;;;;;;;9.69;100.00;100674.06;5997592;28;20114;-66
2022/10/02 02:14:15;;;;;;;8.10;2.40;;;;;;;9.65;100.00;100669.19;5997697;28;20034;-66
2022/10/02 02:17:15;;;;;;;11.48;2.55;;;;;;;9.70;100.00;100664.31;5999312;28;20031;-66
2022/10/02 02:20:16;;;;;;;9.52;2.22;;;;;;;9.77;100.00;100681.28;5997356;28;20043;-66
2022/10/02 02:23:14;;;;;;;13.52;3.13;;;;;;;9.72;100.00;100667.63;6008120;28;20401;-66
2022/10/02 02:26:13;;;;;;;8.52;2.97;;;;;;;9.83;100.00;100678.06;6002403;28;20038;-66
2022/10/02 02:29:11;;;;;;;7.97;2.67;;;;;;;9.77;100.00;100668.03;5997981;28;20116;-66
2022/10/02 02:32:09;;;;;;;12.02;3.50;;;;;;;9.83;100.00;100665.69;5997248;28;20414;-66
2022/10/02 02:35:13;;;;;;;10.52;3.92;;;;;;;9.96;100.00;100675.94;5997374;28;20534;-66
2022/10/02 02:38:16;;;;;;;17.15;4.03;;;;;;;9.91;100.00;100663.16;5997264;28;20026;-66
2022/10/02 02:41:15;;;;;;;14.98;4.28;;;;;;;9.93;100.00;100666.47;5998344;28;20031;-66
2022/10/02 02:44:18;;;;;;;19.27;4.28;;;;;;;10.00;100.00;100683.47;5997520;28;20030;-66
2022/10/02 02:47:21;;;;;;;13.23;4.22;;;;;;;9.97;100.00;100664.38;5997423;28;20039;-66
2022/10/02 02:50:32;;;;;;;13.48;5.47;;;;;;;10.06;100.00;100682.06;5998385;28;20030;-66
2022/10/02 02:53:37;;;;;;;16.42;4.28;;;;;;;10.03;100.00;100687.63;5997104;28;20035;-66
2022/10/02 02:56:33;;;;;;;19.23;5.03;;;;;;;9.94;100.00;100665.50;6012212;28;20045;-66
2022/10/02 02:59:30;;;;;;;14.77;4.93;;;;;;;10.06;100.00;100682.06;5998414;28;20034;-66
2022/10/02 03:02:25;;;;;;;11.65;4.68;;;;;;;9.98;100.00;100674.81;6001593;28;20055;-66
2022/10/02 03:05:23;;;;;;;15.45;5.13;;;;;;;9.92;100.00;100670.09;5997474;28;20027;-66
2022/10/02 03:08:23;;;;;;;18.70;5.95;;;;;;;10.00;100.00;100680.00;5997980;28;20066;-65
2022/10/02 03:11:28;;;;;;;;;;;;;;;9.94;100.00;100686.69;5997195;28;20047;-66
2022/10/02 03:14:51;;;;;;;15.63;5.05;;;;;;;9.93;100.00;100686.81;5998407;28;19921;-66
2022/10/02 03:17:58;;;;;;;22.13;6.30;;;;;;;10.08;100.00;100698.66;5993734;28;20061;-66
2022/10/02 03:21:12;;;;;;;23.02;6.57;;;;;;;10.13;100.00;100691.16;5997707;28;20094;-65
2022/10/02 03:24:19;;;;;;;18.40;6.78;;;;;;;10.09;100.00;100692.38;5997050;28;20047;-66
2022/10/02 03:27:16;;;;;;;17.23;6.72;;;;;;;10.14;100.00;100708.69;5998179;28;20033;-66
2022/10/02 03:30:14;;;;;;;14.18;7.25;;;;;;;10.17;100.00;100705.75;5996738;28;20031;-66
2022/10/02 03:33:11;;;;;;;21.67;7.78;;;;;;;10.03;100.00;100685.00;5998020;28;20557;-66
2022/10/02 03:36:10;;;;;;;21.30;8.32;;;;;;;10.18;100.00;100691.56;5998144;28;20035;-66
2022/10/02 03:39:06;;;;;;;24.73;8.70;;;;;;;10.26;100.00;100699.63;6013185;28;20031;-66
2022/10/02 03:42:01;;;;;;;19.02;7.75;;;;;;;10.19;100.00;100695.88;5996441;28;20030;-66
2022/10/02 03:44:57;;;;;;;25.43;8.70;;;;;;;10.25;100.00;100692.63;5998223;28;20109;-66
2022/10/02 03:47:52;;;;;;;19.63;8.48;;;;;;;10.30;100.00;100698.31;5997917;28;20034;-66
2022/10/02 03:50:49;;;;;;;22.33;9.02;;;;;;;10.37;100.00;100703.91;6005037;28;20524;-66
2022/10/02 03:53:44;;;;;;;21.25;8.43;;;;;;;10.40;100.00;100695.66;6025623;28;20076;-66
2022/10/02 03:56:58;;;;;;;19.47;8.60;;;;;;;10.47;100.00;100697.56;6005821;28;20762;-66
2022/10/02 04:00:11;;;;;;;25.38;8.65;;;;;;;10.56;100.00;100696.72;6005888;28;20463;-66
2022/10/02 04:03:23;;;;;;;19.75;9.38;;;;;;;10.64;100.00;100688.84;6024938;28;20023;-66
2022/10/02 04:06:31;;;;;;;16.90;8.15;;;;;;;10.73;100.00;100693.25;6005719;28;20039;-66
2022/10/02 04:09:36;;;;;;;17.23;7.90;;;;;;;10.79;100.00;100696.34;6002011;28;20371;-66
2022/10/02 04:12:39;;;;;;;18.52;7.35;;;;;;;10.70;100.00;100680.31;6000124;28;20500;-66
2022/10/02 04:15:52;;;;;;;20.05;7.90;;;;;;;10.67;100.00;100670.00;6001928;28;20042;-67
2022/10/02 04:18:47;;;;;;;18.95;7.03;;;;;;;10.80;100.00;100682.91;6000713;28;20030;-66
2022/10/02 04:21:53;;;;;;;27.93;7.83;;;;;;;10.79;100.00;100675.13;6001689;28;20374;-66
2022/10/02 04:25:05;;;;;;;19.02;7.45;;;;;;;10.84;100.00;100667.53;6001489;28;20034;-66
2022/10/02 04:28:05;;;;;;;24.48;8.07;;;;;;;10.93;100.00;100674.59;6000810;28;20037;-66
2022/10/02 04:31:01;;;;;;;21.35;8.05;;;;;;;10.99;100.00;100681.94;6000104;28;20035;-66
2022/10/02 04:34:00;;;;;;;21.02;8.27;;;;;;;11.01;100.00;100679.97;6001384;28;20082;-66
2022/10/02 04:37:28;;;;;;;21.25;8.02;;;;;;;11.13;100.00;100697.38;6002730;28;20603;-66
2022/10/02 04:40:32;;;;;;;24.98;8.82;;;;;;;11.10;100.00;100702.97;6001076;28;20408;-66
2022/10/02 04:44:08;;;;;;;15.77;6.82;;;;;;;11.10;100.00;100710.94;6001243;28;20038;-66
2022/10/02 04:47:24;;;;;;;23.50;9.05;;;;;;;11.16;100.00;100715.66;6000877;28;20040;-66
2022/10/02 04:50:37;;;;;;;22.65;8.00;;;;;;;11.17;100.00;100715.50;5999229;28;20713;-67
2022/10/02 04:53:49;;;;;;;28.95;8.50;;;;;;;11.21;100.00;100718.69;6000257;28;20251;-66
2022/10/02 04:57:02;;;;;;;17.90;7.90;;;;;;;11.21;100.00;100721.34;6000621;28;20042;-67
2022/10/02 05:00:15;;;;;;;25.15;8.73;;;;;;;11.15;100.00;100708.66;6000461;28;20479;-67
2022/10/02 05:03:37;;;;;;;16.23;7.50;;;;;;;11.11;100.00;100707.31;6035049;28;20091;-67
2022/10/02 05:06:54;;;;;;;24.98;8.35;;;;;;;11.15;100.00;100719.28;6003221;28;20529;-66
2022/10/02 05:10:12;;;;;;;16.35;7.78;;;;;;;11.15;100.00;100706.00;6000901;28;20035;-66
2022/10/02 05:13:13;;;;;;;20.77;8.13;;;;;;;11.26;100.00;100730.53;5999272;28;20041;-66
2022/10/02 05:16:25;;;;;;;25.95;8.93;;;;;;;11.25;100.00;100720.88;6000875;28;20034;-67
2022/10/02 05:19:56;;;;;;;21.73;8.77;;;;;;;11.23;100.00;100727.31;5998987;28;20090;-66
2022/10/02 05:23:00;;;;;;;26.85;8.27;;;;;;;11.24;100.00;100737.81;6003382;28;20088;-67
2022/10/02 05:26:23;;;;;;;22.55;9.55;;;;;;;11.29;100.00;100729.38;6000366;28;20034;-67
2022/10/02 05:29:27;;;;;;;28.33;10.30;;;;;;;11.30;100.00;100742.53;6000117;28;20030;-68
2022/10/02 05:32:41;;;;;;;26.55;10.07;;;;;;;11.23;100.00;100752.06;5997142;28;20453;-69
2022/10/02 05:35:58;;;;;;;26.23;10.23;;;;;;;11.13;100.00;100726.56;5995596;28;20049;-68
2022/10/02 05:39:07;;;;;;;29.88;11.70;;;;;;;11.14;100.00;100723.75;5999924;28;20039;-68
2022/10/02 05:42:16;;;;;;;23.73;10.85;;;;;;;11.14;100.00;100726.41;5998261;28;20069;-67
2022/10/02 05:45:31;;;;;;;36.42;11.70;;;;;;;11.10;100.00;100725.03;5999440;28;20043;-67
2022/10/02 05:48:57;;;;;;;25.80;9.73;;;;;;;11.06;100.00;100736.13;5993186;28;20590;-67
2022/10/02 05:51:58;;;;;;;28.65;12.07;;;;;;;10.90;100.00;100709.41;6017272;28;20464;-67
2022/10/02 05:55:13;;;;;;;27.92;12.13;;;;;;;10.96;100.00;100740.63;5997691;28;20034;-66
2022/10/02 05:58:28;;;;;;;26.55;10.45;;;;;;;10.87;100.00;100738.88;6023386;28;20468;-67
2022/10/02 06:01:29;;;;;;;27.92;10.18;;;;;;;10.87;100.00;100758.25;6010109;28;20073;-67
2022/10/02 06:04:33;;;;;;;33.30;12.80;;;;;;;10.83;100.00;100758.69;5999751;28;20382;-66
2022/10/02 06:07:29;;;;;;;27.02;10.65;;;;;;;10.79;100.00;100752.03;5998075;28;20913;-66
2022/10/02 06:10:29;;;;;;;31.48;10.32;;;;;;;10.74;100.00;100757.75;5998533;28;20047;-66
2022/10/02 06:13:43;;;;;;;32.75;11.25;;;;;;;10.79;100.00;100758.16;6020591;28;20466;-66
2022/10/02 06:16:46;;;;;;;25.90;11.07;;;;;;;10.67;100.00;100752.22;6004187;28;20037;-66
2022/10/02 06:19:42;;;;;;;34.85;11.93;;;;;;;10.83;100.00;100766.66;6019141;28;20595;-66
2022/10/02 06:22:49;;;;;;;32.03;11.63;;;;;;;10.88;100.00;100753.78;6006443;28;20042;-66
2022/10/02 06:25:49;;;;;;;34.08;11.23;;;;;;;11.02;100.00;100756.78;6007365;28;20066;-66
2022/10/02 06:28:52;;;;;;;34.22;12.55;;;;;;;11.12;100.00;100752.25;6011091;28;20054;-66
2022/10/02 06:31:59;;;;;;;28.50;11.43;;;;;;;11.25;100.00;100767.84;5998606;28;20477;-65
2022/10/02 06:34:55;;;;;;;40.72;12.02;;;;;;;11.35;100.00;100758.00;5987184;28;20100;-66
2022/10/02 06:38:21;;;;;;;32.08;11.63;;;;;;;11.48;100.00;100742.53;6007912;28;20093;-65
2022/10/02 06:41:23;;;;;;;33.00;10.63;;;;;;;11.85;100.00;100755.66;5995618;28;20065;-66
2022/10/02 06:44:26;;;;;;;21.70;9.57;;;;;;;11.93;100.00;100753.91;5997321;28;20053;-65
2022/10/02 06:47:53;;;;;;;23.05;9.27;;;;;;;11.92;100.00;100741.66;5996613;28;20069;-65
2022/10/02 06:51:09;;;;;;;26.05;8.48;;;;;;;11.81;100.00;100749.84;5995106;28;20026;-65
2022/10/02 06:54:18;;;;;;;21.63;10.07;;;;;;;11.74;100.00;100759.41;5995681;28;20035;-65
2022/10/02 06:57:29;;;;;;;20.88;9.40;;;;;;;11.72;100.00;100761.38;5996847;28;20645;-65
2022/10/02 07:00:25;;;;;;;30.05;8.90;;;;;;;11.69;100.00;100759.03;5999775;28;20042;-65
2022/10/02 07:03:55;;;;;;;21.00;8.55;;;;;;;11.86;100.00;100778.59;6009177;28;20051;-65
2022/10/02 07:07:05;;;;;;;24.13;8.93;;;;;;;11.99;100.00;100772.91;5997498;28;20094;-65
2022/10/02 07:10:42;;;;;;;22.30;7.45;;;;;;;12.11;100.00;100769.03;5998251;28;20141;-65
2022/10/02 07:13:55;;;;;;;20.02;7.55;;;;;;;12.02;100.00;100768.13;5949047;29;20049;-65
2022/10/02 07:17:06;;;;;;;19.88;7.32;;;;;;;11.88;100.00;100756.22;5949055;28;20106;-67
2022/10/02 07:20:20;;;;;;;23.30;7.85;;;;;;;12.12;100.00;100771.50;5998873;28;20030;-65
2022/10/02 07:23:40;;;;;;;16.15;7.57;;;;;;;12.37;100.00;100772.53;6000723;28;20031;-65
2022/10/02 07:26:54;;;;;;;18.15;7.07;;;;;;;12.61;100.00;100775.34;6003044;28;20038;-65
2022/10/02 07:30:11;;;;;;;20.30;6.93;;;;;;;12.79;100.00;100778.78;6003252;28;20034;-65
2022/10/02 07:33:19;;;;;;;16.73;5.95;;;;;;;13.08;100.00;100778.44;6006190;28;20478;-66
2022/10/02 07:36:31;;;;;;;22.05;6.68;;;;;;;13.30;99.71;100787.66;6003058;28;20117;-66
2022/10/02 07:39:54;;;;;;;14.70;6.10;;;;;;;13.36;98.23;100792.34;6006019;28;20164;-66
2022/10/02 07:43:33;;;;;;;16.17;5.93;;;;;;;13.08;99.50;100784.59;5997460;28;20030;-66
2022/10/02 07:46:45;;;;;;;12.82;6.45;;;;;;;13.15;99.21;100783.97;6002803;28;20640;-66
2022/10/02 07:50:02;;;;;;;18.63;6.60;;;;;;;13.11;99.56;100796.75;6002492;28;20035;-67
2022/10/02 07:53:25;;;;;;;17.27;6.30;;;;;;;13.13;99.98;100805.41;6001097;28;20038;-66
2022/10/02 07:56:22;;;;;;;15.20;5.93;;;;;;;13.36;99.05;100808.34;5995821;28;20482;-67
2022/10/02 07:59:17;;;;;;;15.40;5.60;;;;;;;13.49;98.62;100803.38;6000783;28;20042;-67
2022/10/02 08:02:39;;;;;;;17.30;5.68;;;;;;;13.60;97.77;100817.22;6000437;28;20045;-67
2022/10/02 08:05:39;;;;;;;16.23;6.30;;;;;;;13.62;97.64;100815.22;6001289;28;20055;-67
2022/10/02 08:08:37;;;;;;;14.98;5.53;;;;;;;13.73;97.77;100824.75;6000972;28;20066;-67
2022/10/02 08:11:38;;;;;;;14.98;5.15;;;;;;;13.93;98.00;100831.47;6001865;28;20026;-66
2022/10/02 08:14:41;;;;;;;11.68;4.97;;;;;;;14.17;95.52;100819.97;6001518;28;20446;-67
2022/10/02 08:17:42;;;;;;;14.85;4.50;;;;;;;14.49;94.44;100832.47;6002168;28;20049;-66
2022/10/02 08:20:40;;;;;;;14.05;3.90;;;;;;;14.50;92.84;100824.31;6001132;28;20163;-66
2022/10/02 08:23:48;;;;;;;14.98;4.18;;;;;;;14.67;92.39;100836.66;6000887;28;20054;-67
2022/10/02 08:26:48;;;;;;;12.32;4.57;;;;;;;14.36;93.11;100829.50;6000731;28;20031;-66
2022/10/02 08:29:51;;;;;;;12.43;4.95;;;;;;;14.15;92.91;100837.97;6000874;28;20035;-67
2022/10/02 08:32:47;;;;;;;13.77;4.88;;;;;;;14.03;95.29;100823.28;6001182;28;20371;-66
2022/10/02 08:35:55;;;;;;;11.82;5.28;;;;;;;14.08;95.89;100832.47;6000486;28;20038;-67
2022/10/02 08:39:15;;;;;;;12.43;4.47;;;;;;;14.30;95.51;100834.47;6006145;28;20374;-66
2022/10/02 08:42:19;;;;;;;11.82;4.70;;;;;;;14.56;94.83;100837.00;5996824;28;20035;-66
2022/10/02 08:45:23;;;;;;;8.98;3.85;;;;;;;14.71;92.75;100829.97;6001585;28;20031;-66
2022/10/02 08:48:33;;;;;;;14.18;4.22;;;;;;;14.43;91.84;100836.66;6000971;28;20085;-66
2022/10/02 08:51:34;;;;;;;17.10;3.88;;;;;;;14.42;93.20;100844.84;5999597;28;20146;-66
2022/10/02 08:54:41;;;;;;;10.93;3.95;;;;;;;14.49;93.06;100824.47;6001174;28;20022;-67
2022/10/02 08:57:42;;;;;;;13.52;3.95;;;;;;;14.56;92.94;100846.84;6001608;28;20045;-66
2022/10/02 09:00:46;;;;;;;12.98;4.68;;;;;;;14.74;92.75;100848.31;6000424;28;20454;-67
2022/10/02 09:03:53;;;;;;;10.50;4.22;;;;;;;14.94;91.81;100834.59;6000732;28;20439;-66
2022/10/02 09:06:58;;;;;;;15.77;3.85;;;;;;;14.79;90.99;100839.78;6001550;28;20081;-66
2022/10/02 09:10:18;;;;;;;13.10;3.47;;;;;;;14.47;92.13;100848.69;6000964;28;20030;-66
2022/10/02 09:13:39;;;;;;;10.38;3.25;;;;;;;14.20;93.50;100841.81;6000659;28;20114;-66
2022/10/02 09:16:57;;;;;;;12.57;2.85;;;;;;;14.00;94.00;100858.28;5999526;28;20039;-66
2022/10/02 09:20:05;;;;;;;12.27;3.75;;;;;;;13.65;93.03;100849.56;6009220;28;20034;-66
2022/10/02 09:23:00;;;;;;;9.00;2.63;;;;;;;13.89;92.03;100847.94;6013462;28;20082;-66
2022/10/02 09:25:55;;;;;;;10.67;2.57;;;;;;;14.40;90.90;100841.50;6000190;28;20044;-66
2022/10/02 09:29:21;;;;;;;7.27;2.60;;;;;;;15.01;87.88;100855.09;6000505;28;20033;-66
2022/10/02 09:32:35;;;;;;;;;;;;;;;15.47;83.84;100843.59;6000072;28;20041;-67
2022/10/02 09:35:49;;;;;;;6.50;1.88;;;;;;;15.57;81.71;100847.91;6000398;28;19918;-66
2022/10/02 09:39:03;;;;;;;8.02;2.15;;;;;;;15.61;80.67;100846.53;6000185;28;20046;-66
2022/10/02 09:42:20;;;;;;;11.63;2.00;;;;;;;15.76;80.82;100837.56;5999625;28;20452;-66
2022/10/02 09:45:45;;;;;;;8.77;2.20;;;;;;;16.04;80.18;100843.25;5999296;28;20046;-66
2022/10/02 09:48:59;;;;;;;7.90;1.90;;;;;;;16.07;78.89;100849.09;5963643;28;20049;-66
2022/10/02 09:52:15;;;;;;;6.68;2.00;;;;;;;16.16;77.80;100839.16;5999664;28;20038;-66
2022/10/02 09:55:35;;;;;;;9.20;2.30;;;;;;;16.05;76.10;100847.59;6000060;28;20034;-66
2022/10/02 09:58:46;;;;;;;10.13;1.92;;;;;;;16.11;76.84;100854.91;5998691;28;20381;-66
2022/10/02 10:01:47;;;;;;;12.27;2.60;;;;;;;16.18;74.85;100858.53;5999441;28;20042;-66
2022/10/02 10:05:16;;;;;;;7.47;1.90;;;;;;;16.10;75.93;100837.19;5999865;28;20529;-67
2022/10/02 10:08:38;;;;;;;10.93;2.10;;;;;;;16.21;74.09;100838.63;6000156;28;20101;-66
2022/10/02 10:12:13;;;;;;;10.32;1.90;;;;;;;16.55;73.34;100866.63;5998706;28;20122;-66
2022/10/02 10:15:18;;;;;;;9.55;1.70;;;;;;;16.60;73.64;100842.81;5998318;28;20470;-67
2022/10/02 10:18:32;;;;;;;4.72;1.55;;;;;;;17.01;72.30;100847.78;6008710;28;20505;-66
2022/10/02 10:22:03;;;;;;;8.05;1.70;;;;;;;17.39;71.38;100838.59;6022153;28;20042;-67
2022/10/02 10:25:14;;;;;;;8.07;2.08;;;;;;;17.61;70.32;100853.75;6021639;28;20034;-67
2022/10/02 10:28:51;;;;;;;10.27;1.73;;;;;;;17.58;68.01;100851.44;5998949;28;20047;-66
2022/10/02 10:32:00;;;;;;;7.68;1.45;;;;;;;17.89;67.87;100853.84;5991362;28;20066;-67
2022/10/02 10:34:58;;;;;;;8.55;2.00;;;;;;;17.69;68.22;100856.31;5998162;28;20090;-67
2022/10/02 10:38:33;;;;;;;9.90;1.80;;;;;;;17.67;69.17;100846.78;5999393;28;20135;-66
2022/10/02 10:41:31;;;;;;;8.27;1.60;;;;;;;17.53;67.79;100863.75;5998457;28;20110;-67
2022/10/02 10:44:49;;;;;;;7.07;1.58;;;;;;;17.06;67.40;100870.31;5998859;28;20046;-66
2022/10/02 10:48:08;;;;;;;8.02;1.52;;;;;;;16.58;69.57;100855.53;5993411;28;20045;-66
2022/10/02 10:51:29;;;;;;;9.00;1.50;;;;;;;16.58;70.81;100849.34;5998367;28;20122;-66
2022/10/02 10:54:47;;;;;;;6.55;1.60;;;;;;;16.13;70.47;100876.13;5998965;28;20683;-67
2022/10/02 10:58:05;;;;;;;10.02;1.80;;;;;;;16.01;69.41;100870.34;5995920;28;20039;-67
2022/10/02 11:01:16;;;;;;;4.75;1.00;;;;;;;16.04;69.54;100864.66;6005856;28;20088;-67
2022/10/02 11:04:37;;;;;;;11.10;1.38;;;;;;;16.22;68.33;100875.91;6005579;28;20039;-67
2022/10/02 11:08:05;;;;;;;6.15;1.40;;;;;;;15.70;69.62;100877.56;6006244;28;20031;-66
2022/10/02 11:11:14;;;;;;;9.30;1.48;;;;;;;15.95;69.33;100868.41;6005309;28;20043;-66
2022/10/02 11:14:27;;;;;;;8.15;1.42;;;;;;;16.32;70.18;100876.50;6005949;28;20035;-66
2022/10/02 11:17:33;;;;;;;6.28;1.27;;;;;;;16.52;66.95;100856.22;6009262;28;20030;-66
2022/10/02 11:20:43;;;;;;;8.88;1.55;;;;;;;16.77;66.27;100856.06;6029522;28;20508;-66
2022/10/02 11:23:49;;;;;;;10.95;1.67;;;;;;;16.87;66.31;100848.59;6023450;28;20450;-66
2022/10/02 11:26:54;;;;;;;8.75;1.60;;;;;;;17.40;64.84;100856.34;6006202;28;20374;-67
2022/10/02 11:30:00;;;;;;;6.38;1.25;;;;;;;17.53;64.96;100861.91;6005184;28;20038;-67
2022/10/02 11:32:58;;;;;;;6.40;1.20;;;;;;;16.99;64.34;100842.56;6005414;28;20038;-66
2022/10/02 11:36:00;;;;;;;9.20;1.40;;;;;;;16.83;65.80;100858.81;6006249;28;20039;-66
2022/10/02 11:39:13;;;;;;;8.20;1.33;;;;;;;16.71;66.43;100862.16;6005979;28;20474;-66
2022/10/02 11:42:17;;;;;;;8.75;1.60;;;;;;;16.56;65.55;100851.38;6005873;28;20541;-67
2022/10/02 11:45:30;;;;;;;6.05;1.20;;;;;;;16.99;66.09;100841.75;6006232;28;20374;-66
2022/10/02 11:48:39;;;;;;;;;;;;;;;17.23;65.67;100857.53;6005362;28;20078;-66
2022/10/02 11:51:51;;;;;;;4.72;1.30;;;;;;;16.86;66.47;100866.50;6005261;28;20045;-67
2022/10/02 11:55:07;;;;;;;7.50;1.30;;;;;;;16.49;68.10;100871.84;6005850;28;20169;-67
2022/10/02 11:58:32;;;;;;;9.57;1.50;;;;;;;16.05;73.46;100879.69;6006002;28;20498;-67
2022/10/02 12:01:52;;;;;;;7.32;1.70;;;;;;;15.36;79.53;100883.19;6005471;28;20462;-67
2022/10/02 12:05:04;;;;;;;11.35;1.80;;;;;;;14.66;80.77;100890.19;6004666;28;20042;-66
2022/10/02 12:08:13;;;;;;;7.70;2.03;;;;;;;14.36;83.31;100866.84;6005982;28;20041;-66
2022/10/02 12:11:20;;;;;;;7.13;1.67;;;;;;;14.27;83.45;100879.31;5999442;28;20178;-66
2022/10/02 12:14:18;;;;;;;;;;;;;;;14.26;84.73;100899.84;6001246;28;20662;-66
2022/10/02 12:17:40;;;;;;;6.35;1.75;;;;;;;14.20;85.85;100895.16;6002791;28;19953;-66
2022/10/02 12:27:41;;;;;;;5.10;1.30;;;;;;;14.89;82.23;100909.88;6001897;28;20035;-66
2022/10/02 12:30:50;;;;;;;6.60;1.23;;;;;;;14.83;81.74;100899.88;5999923;28;20093;-66
2022/10/02 12:34:13;;;;;;;9.02;2.28;;;;;;;14.86;81.50;100918.22;6002015;28;20042;-66
2022/10/02 12:37:16;;;;;;;6.75;1.52;;;;;;;14.72;81.79;100909.06;6000407;28;20034;-66
2022/10/02 12:40:22;;;;;;;5.15;1.42;;;;;;;14.75;82.09;100915.88;6001161;28;20043;-66
2022/10/02 12:43:33;;;;;;;5.28;1.23;;;;;;;14.76;82.88;100917.53;5999919;28;20041;-66
2022/10/02 12:46:56;;;;;;;6.60;1.33;;;;;;;14.92;81.67;100914.84;6001662;28;20489;-66
2022/10/02 12:50:26;;;;;;;6.68;1.25;;;;;;;15.08;81.68;100922.88;6001010;28;20097;-66
2022/10/02 12:53:31;;;;;;;7.03;1.73;;;;;;;15.22;81.62;100919.47;6001323;28;20038;-66
2022/10/02 12:57:01;;;;;;;3.53;1.05;;;;;;;15.60;79.98;100914.38;6001614;28;20035;-66
2022/10/02 13:00:13;;;;;;;4.93;1.10;;;;;;;16.33;77.60;100902.25;5999913;28;20066;-66
2022/10/02 13:03:25;;;;;;;6.22;1.20;;;;;;;16.75;74.97;100898.25;6001241;28;20035;-66
2022/10/02 13:07:05;;;;;;;6.95;1.33;;;;;;;16.58;73.92;100903.75;6000686;28;20117;-66
2022/10/02 13:10:24;;;;;;;6.22;1.30;;;;;;;16.39;74.54;100906.03;5990127;28;20088;-66
2022/10/02 13:13:25;;;;;;;6.85;1.40;;;;;;;16.28;75.53;100915.31;6000823;28;20073;-66
2022/10/02 13:16:48;;;;;;;8.80;1.33;;;;;;;16.12;76.05;100906.56;6000685;28;20471;-66
2022/10/02 13:19:54;;;;;;;12.02;1.60;;;;;;;16.20;76.32;100919.91;6020535;28;20030;-66
2022/10/02 13:22:57;;;;;;;8.25;1.60;;;;;;;16.09;77.47;100907.75;6010580;28;20064;-66
2022/10/02 13:25:56;;;;;;;9.00;1.60;;;;;;;16.40;76.43;100921.94;6000835;28;20119;-66
2022/10/02 13:29:04;;;;;;;5.50;1.50;;;;;;;16.18;76.20;100929.94;5999309;28;20030;-66
2022/10/02 13:32:11;;;;;;;4.47;1.40;;;;;;;15.82;76.11;100921.63;5999861;28;20035;-65
2022/10/02 13:35:35;;;;;;;5.68;1.40;;;;;;;15.58;78.74;100919.06;6000547;28;20039;-66
2022/10/02 13:38:48;;;;;;;8.82;2.17;;;;;;;15.49;78.32;100911.06;6000291;28;20030;-66
2022/10/02 13:42:07;;;;;;;7.95;1.35;;;;;;;15.79;77.69;100916.66;5999622;28;20035;-66
2022/10/02 13:45:14;;;;;;;7.05;1.50;;;;;;;16.26;75.96;100903.97;6000547;28;20579;-66
2022/10/02 13:48:33;;;;;;;6.30;1.20;;;;;;;16.30;73.82;100916.00;6000207;28;20031;-66
2022/10/02 13:51:45;;;;;;;5.20;1.30;;;;;;;15.86;74.74;100909.56;5980273;28;20143;-66
2022/10/02 13:55:03;;;;;;;7.63;2.70;;;;;;;16.02;75.20;100929.03;5998269;28;20035;-66
2022/10/02 13:58:15;;;;;;;9.35;1.48;;;;;;;16.08;75.84;100916.81;6031219;28;20093;-66
2022/10/02 14:01:17;;;;;;;3.65;1.10;;;;;;;16.02;75.70;100906.81;6022815;28;20542;-66
2022/10/02 14:04:27;;;;;;;8.85;1.35;;;;;;;16.38;75.90;100921.28;6023088;28;20110;-66
2022/10/02 14:07:53;;;;;;;4.63;1.02;;;;;;;16.71;76.41;100924.59;6021612;28;20069;-66
2022/10/02 14:11:14;;;;;;;6.45;1.50;;;;;;;16.77;76.72;100917.66;5997815;28;20414;-66
2022/10/02 14:14:38;;;;;;;6.70;1.52;;;;;;;16.66;78.07;100918.91;5999435;28;20031;-65
2022/10/02 14:17:59;;;;;;;6.10;1.60;;;;;;;16.44;78.28;100917.06;5993397;28;20031;-66
2022/10/02 14:21:10;;;;;;;6.22;1.30;;;;;;;16.33;79.19;100923.69;6011117;28;20026;-66
2022/10/02 14:25:02;;;;;;;6.72;1.35;;;;;;;16.27;78.96;100921.72;6000528;28;20104;-66
2022/10/02 14:28:49;;;;;;;6.20;1.33;;;;;;;16.43;78.71;100932.28;5981002;28;20729;-66
2022/10/02 14:31:53;;;;;;;5.63;1.40;;;;;;;16.67;78.83;100934.81;5996283;28;20041;-66
2022/10/02 14:35:25;;;;;;;6.40;1.83;;;;;;;16.70;78.32;100932.78;5999296;28;20046;-66
2022/10/02 14:38:26;;;;;;;5.10;1.50;;;;;;;16.55;77.37;100940.78;5998955;28;20058;-66
2022/10/02 14:41:50;;;;;;;5.75;1.67;;;;;;;16.44;77.93;100939.28;5998666;28;20076;-66